Terminal Aerodrome Forecast
Issued by NWS

Home | Current Version | Previous Version | Text Only | Print | Product List | Glossary On
Versions: 1 2 3 4 5 6 7 8 9 10 11 12 13 14 15 16 17
303
FTUS45 KRIW 241726
TAFCOD
TAF
KCOD 241726Z 2418/2518 02010KT P6SM FEW080 SCT250
     FM242100 01008KT P6SM SCT090
     FM250100 36010KT P6SM VCSH BKN110
     FM250700 34006KT P6SM SCT110
      AMD LTD TO CLD VIS AND WIND=

USA.gov is the U.S. government's official web portal to all federal, state and local government web resources and services.